sensor_id;sensor_type;location;lat;lon;timestamp;temperature;humidity
23301;DHT22;11819;51.394;12.340;2022-09-06T00:00:37;21.20;61.50
23301;DHT22;11819;51.394;12.340;2022-09-06T00:03:04;21.20;61.50
23301;DHT22;11819;51.394;12.340;2022-09-06T00:05:30;21.20;61.60
23301;DHT22;11819;51.394;12.340;2022-09-06T00:08:01;21.10;61.50
23301;DHT22;11819;51.394;12.340;2022-09-06T00:10:28;21.10;61.60
23301;DHT22;11819;51.394;12.340;2022-09-06T00:12:54;21.10;61.60
23301;DHT22;11819;51.394;12.340;2022-09-06T00:15:21;21.10;61.80
23301;DHT22;11819;51.394;12.340;2022-09-06T00:17:47;21.00;61.70
23301;DHT22;11819;51.394;12.340;2022-09-06T00:20:13;21.00;62.70
23301;DHT22;11819;51.394;12.340;2022-09-06T00:22:39;20.90;61.80
23301;DHT22;11819;51.394;12.340;2022-09-06T00:25:06;20.90;61.90
23301;DHT22;11819;51.394;12.340;2022-09-06T00:27:32;20.90;62.00
23301;DHT22;11819;51.394;12.340;2022-09-06T00:29:57;20.90;62.10
23301;DHT22;11819;51.394;12.340;2022-09-06T00:32:23;20.90;62.20
23301;DHT22;11819;51.394;12.340;2022-09-06T00:34:49;20.80;62.20
23301;DHT22;11819;51.394;12.340;2022-09-06T00:37:15;20.80;62.30
23301;DHT22;11819;51.394;12.340;2022-09-06T00:39:40;20.80;62.30
23301;DHT22;11819;51.394;12.340;2022-09-06T00:42:10;20.70;62.30
23301;DHT22;11819;51.394;12.340;2022-09-06T00:44:37;20.70;62.40
23301;DHT22;11819;51.394;12.340;2022-09-06T00:47:04;20.70;62.50
23301;DHT22;11819;51.394;12.340;2022-09-06T00:49:32;20.70;62.50
23301;DHT22;11819;51.394;12.340;2022-09-06T00:52:02;20.70;62.60
23301;DHT22;11819;51.394;12.340;2022-09-06T00:54:29;20.70;62.60
23301;DHT22;11819;51.394;12.340;2022-09-06T00:56:56;20.60;61.70
23301;DHT22;11819;51.394;12.340;2022-09-06T00:59:24;20.60;62.60
23301;DHT22;11819;51.394;12.340;2022-09-06T01:01:51;20.60;62.70
23301;DHT22;11819;51.394;12.340;2022-09-06T01:04:17;20.60;62.70
23301;DHT22;11819;51.394;12.340;2022-09-06T01:07:01;20.50;62.70
23301;DHT22;11819;51.394;12.340;2022-09-06T01:09:54;20.50;62.80
23301;DHT22;11819;51.394;12.340;2022-09-06T01:12:41;20.50;62.90
23301;DHT22;11819;51.394;12.340;2022-09-06T01:15:36;20.40;63.00
23301;DHT22;11819;51.394;12.340;2022-09-06T01:21:39;20.40;63.10
23301;DHT22;11819;51.394;12.340;2022-09-06T01:27:11;20.40;63.20
23301;DHT22;11819;51.394;12.340;2022-09-06T01:29:51;20.30;63.20
23301;DHT22;11819;51.394;12.340;2022-09-06T01:35:04;20.30;63.40
23301;DHT22;11819;51.394;12.340;2022-09-06T01:37:31;20.30;63.40
23301;DHT22;11819;51.394;12.340;2022-09-06T01:39:57;20.30;63.50
23301;DHT22;11819;51.394;12.340;2022-09-06T01:42:25;20.30;63.50
23301;DHT22;11819;51.394;12.340;2022-09-06T01:45:04;20.30;63.50
23301;DHT22;11819;51.394;12.340;2022-09-06T01:50:35;20.20;63.60
23301;DHT22;11819;51.394;12.340;2022-09-06T01:53:13;20.20;63.60
23301;DHT22;11819;51.394;12.340;2022-09-06T01:56:01;20.20;63.80
23301;DHT22;11819;51.394;12.340;2022-09-06T02:06:30;20.10;64.00
23301;DHT22;11819;51.394;12.340;2022-09-06T02:09:08;20.10;64.00
23301;DHT22;11819;51.394;12.340;2022-09-06T02:11:42;20.00;64.10
23301;DHT22;11819;51.394;12.340;2022-09-06T02:14:14;20.00;64.10
23301;DHT22;11819;51.394;12.340;2022-09-06T02:16:43;20.00;64.30
23301;DHT22;11819;51.394;12.340;2022-09-06T02:19:40;20.00;64.40
23301;DHT22;11819;51.394;12.340;2022-09-06T02:22:11;20.00;64.50
23301;DHT22;11819;51.394;12.340;2022-09-06T02:24:40;20.00;64.60
23301;DHT22;11819;51.394;12.340;2022-09-06T02:27:07;20.00;64.60
23301;DHT22;11819;51.394;12.340;2022-09-06T02:29:34;19.90;64.70
23301;DHT22;11819;51.394;12.340;2022-09-06T02:32:11;19.90;64.70
23301;DHT22;11819;51.394;12.340;2022-09-06T02:34:40;19.90;64.70
23301;DHT22;11819;51.394;12.340;2022-09-06T02:37:06;19.90;64.80
23301;DHT22;11819;51.394;12.340;2022-09-06T02:39:32;19.90;64.90
23301;DHT22;11819;51.394;12.340;2022-09-06T02:41:59;19.80;65.00
23301;DHT22;11819;51.394;12.340;2022-09-06T02:44:25;19.80;65.00
23301;DHT22;11819;51.394;12.340;2022-09-06T02:46:51;19.80;65.20
23301;DHT22;11819;51.394;12.340;2022-09-06T02:49:16;19.80;65.30
23301;DHT22;11819;51.394;12.340;2022-09-06T02:51:42;19.80;65.30
23301;DHT22;11819;51.394;12.340;2022-09-06T02:54:07;19.80;65.30
23301;DHT22;11819;51.394;12.340;2022-09-06T02:56:34;19.80;65.30
23301;DHT22;11819;51.394;12.340;2022-09-06T02:59:01;19.70;65.40
23301;DHT22;11819;51.394;12.340;2022-09-06T03:01:28;19.70;65.50
23301;DHT22;11819;51.394;12.340;2022-09-06T03:03:54;19.70;65.60
23301;DHT22;11819;51.394;12.340;2022-09-06T03:06:20;19.60;65.80
23301;DHT22;11819;51.394;12.340;2022-09-06T03:08:46;19.60;66.00
23301;DHT22;11819;51.394;12.340;2022-09-06T03:11:11;19.50;66.10
23301;DHT22;11819;51.394;12.340;2022-09-06T03:13:37;19.50;66.10
23301;DHT22;11819;51.394;12.340;2022-09-06T03:16:02;19.50;66.10
23301;DHT22;11819;51.394;12.340;2022-09-06T03:18:29;19.50;66.10
23301;DHT22;11819;51.394;12.340;2022-09-06T03:20:55;19.50;66.10
23301;DHT22;11819;51.394;12.340;2022-09-06T03:23:24;19.50;66.30
23301;DHT22;11819;51.394;12.340;2022-09-06T03:25:50;19.50;66.30
23301;DHT22;11819;51.394;12.340;2022-09-06T03:28:16;19.50;66.30
23301;DHT22;11819;51.394;12.340;2022-09-06T03:30:45;19.50;66.40
23301;DHT22;11819;51.394;12.340;2022-09-06T03:33:11;19.50;66.40
23301;DHT22;11819;51.394;12.340;2022-09-06T03:35:37;19.50;66.50
23301;DHT22;11819;51.394;12.340;2022-09-06T03:38:03;19.40;66.50
23301;DHT22;11819;51.394;12.340;2022-09-06T03:40:28;19.40;66.60
23301;DHT22;11819;51.394;12.340;2022-09-06T03:42:55;19.30;66.70
23301;DHT22;11819;51.394;12.340;2022-09-06T03:45:20;19.30;66.80
23301;DHT22;11819;51.394;12.340;2022-09-06T03:47:46;19.30;66.90
23301;DHT22;11819;51.394;12.340;2022-09-06T03:50:12;19.30;67.00
23301;DHT22;11819;51.394;12.340;2022-09-06T03:52:37;19.30;67.10
23301;DHT22;11819;51.394;12.340;2022-09-06T03:55:03;19.30;68.10
23301;DHT22;11819;51.394;12.340;2022-09-06T03:57:29;19.20;67.10
23301;DHT22;11819;51.394;12.340;2022-09-06T03:59:55;19.30;67.20
23301;DHT22;11819;51.394;12.340;2022-09-06T04:02:21;19.30;67.20
23301;DHT22;11819;51.394;12.340;2022-09-06T04:04:46;19.30;67.20
23301;DHT22;11819;51.394;12.340;2022-09-06T04:07:12;19.30;67.20
23301;DHT22;11819;51.394;12.340;2022-09-06T04:09:37;19.20;67.20
23301;DHT22;11819;51.394;12.340;2022-09-06T04:12:03;19.20;67.20
23301;DHT22;11819;51.394;12.340;2022-09-06T04:14:29;19.20;67.20
23301;DHT22;11819;51.394;12.340;2022-09-06T04:16:54;19.20;67.20
23301;DHT22;11819;51.394;12.340;2022-09-06T04:19:20;19.20;67.20
23301;DHT22;11819;51.394;12.340;2022-09-06T04:21:46;19.20;67.20
23301;DHT22;11819;51.394;12.340;2022-09-06T04:24:11;19.20;67.20
23301;DHT22;11819;51.394;12.340;2022-09-06T04:26:37;19.20;67.20
23301;DHT22;11819;51.394;12.340;2022-09-06T04:29:03;19.20;67.20
23301;DHT22;11819;51.394;12.340;2022-09-06T04:31:28;19.20;67.10
23301;DHT22;11819;51.394;12.340;2022-09-06T04:33:54;19.20;67.10
23301;DHT22;11819;51.394;12.340;2022-09-06T04:36:19;19.20;67.10
23301;DHT22;11819;51.394;12.340;2022-09-06T04:38:45;19.20;67.10
23301;DHT22;11819;51.394;12.340;2022-09-06T04:41:13;19.20;68.10
23301;DHT22;11819;51.394;12.340;2022-09-06T04:43:40;19.20;67.30
23301;DHT22;11819;51.394;12.340;2022-09-06T04:46:14;19.20;67.30
23301;DHT22;11819;51.394;12.340;2022-09-06T04:48:41;19.10;67.40
23301;DHT22;11819;51.394;12.340;2022-09-06T04:51:07;19.10;67.30
23301;DHT22;11819;51.394;12.340;2022-09-06T04:53:33;19.20;67.30
23301;DHT22;11819;51.394;12.340;2022-09-06T04:55:58;19.20;67.30
23301;DHT22;11819;51.394;12.340;2022-09-06T04:58:24;19.20;67.20
23301;DHT22;11819;51.394;12.340;2022-09-06T05:00:50;19.10;67.20
23301;DHT22;11819;51.394;12.340;2022-09-06T05:03:17;19.10;67.20
23301;DHT22;11819;51.394;12.340;2022-09-06T05:05:42;19.10;67.40
23301;DHT22;11819;51.394;12.340;2022-09-06T05:08:08;19.10;67.50
23301;DHT22;11819;51.394;12.340;2022-09-06T05:10:34;19.10;67.50
23301;DHT22;11819;51.394;12.340;2022-09-06T05:12:59;19.10;67.40
23301;DHT22;11819;51.394;12.340;2022-09-06T05:15:25;19.10;67.40
23301;DHT22;11819;51.394;12.340;2022-09-06T05:17:50;19.10;67.40
23301;DHT22;11819;51.394;12.340;2022-09-06T05:20:16;19.10;67.40
23301;DHT22;11819;51.394;12.340;2022-09-06T05:22:42;19.10;67.30
23301;DHT22;11819;51.394;12.340;2022-09-06T05:25:08;19.10;67.40
23301;DHT22;11819;51.394;12.340;2022-09-06T05:27:34;19.10;67.30
23301;DHT22;11819;51.394;12.340;2022-09-06T05:30:00;19.10;67.30
23301;DHT22;11819;51.394;12.340;2022-09-06T05:32:26;19.10;67.40
23301;DHT22;11819;51.394;12.340;2022-09-06T05:34:51;19.10;67.50
23301;DHT22;11819;51.394;12.340;2022-09-06T05:37:17;19.10;67.50
23301;DHT22;11819;51.394;12.340;2022-09-06T05:39:43;19.00;67.50
23301;DHT22;11819;51.394;12.340;2022-09-06T05:42:08;19.10;67.90
23301;DHT22;11819;51.394;12.340;2022-09-06T05:44:35;19.10;67.60
23301;DHT22;11819;51.394;12.340;2022-09-06T05:47:01;19.10;67.60
23301;DHT22;11819;51.394;12.340;2022-09-06T05:49:31;19.10;67.60
23301;DHT22;11819;51.394;12.340;2022-09-06T05:51:57;19.10;67.70
23301;DHT22;11819;51.394;12.340;2022-09-06T05:54:22;19.10;67.80
23301;DHT22;11819;51.394;12.340;2022-09-06T05:56:48;19.10;67.90
23301;DHT22;11819;51.394;12.340;2022-09-06T05:59:14;19.10;67.90
23301;DHT22;11819;51.394;12.340;2022-09-06T06:01:47;19.10;68.10
23301;DHT22;11819;51.394;12.340;2022-09-06T06:04:13;19.10;68.20
23301;DHT22;11819;51.394;12.340;2022-09-06T06:06:39;19.10;68.20
23301;DHT22;11819;51.394;12.340;2022-09-06T06:09:05;19.10;68.20
23301;DHT22;11819;51.394;12.340;2022-09-06T06:11:31;19.10;68.20
23301;DHT22;11819;51.394;12.340;2022-09-06T06:13:56;19.10;68.20
23301;DHT22;11819;51.394;12.340;2022-09-06T06:16:23;19.20;68.10
23301;DHT22;11819;51.394;12.340;2022-09-06T06:18:50;19.20;68.10
23301;DHT22;11819;51.394;12.340;2022-09-06T06:21:27;19.20;68.20
23301;DHT22;11819;51.394;12.340;2022-09-06T06:23:58;19.20;68.20
23301;DHT22;11819;51.394;12.340;2022-09-06T06:26:25;19.20;68.20
23301;DHT22;11819;51.394;12.340;2022-09-06T06:28:51;19.20;68.20
23301;DHT22;11819;51.394;12.340;2022-09-06T06:31:16;19.20;68.20
23301;DHT22;11819;51.394;12.340;2022-09-06T06:33:42;19.20;68.30
23301;DHT22;11819;51.394;12.340;2022-09-06T06:38:39;19.20;68.10
23301;DHT22;11819;51.394;12.340;2022-09-06T06:41:06;19.20;68.10
23301;DHT22;11819;51.394;12.340;2022-09-06T06:43:32;19.20;68.00
23301;DHT22;11819;51.394;12.340;2022-09-06T06:46:05;19.20;68.00
23301;DHT22;11819;51.394;12.340;2022-09-06T06:48:31;19.20;68.00
23301;DHT22;11819;51.394;12.340;2022-09-06T06:50:57;19.20;67.90
23301;DHT22;11819;51.394;12.340;2022-09-06T06:53:22;19.30;68.00
23301;DHT22;11819;51.394;12.340;2022-09-06T06:55:48;19.30;67.90
23301;DHT22;11819;51.394;12.340;2022-09-06T06:58:17;19.30;67.90
23301;DHT22;11819;51.394;12.340;2022-09-06T07:00:43;19.30;67.90
23301;DHT22;11819;51.394;12.340;2022-09-06T07:03:10;19.30;67.90
23301;DHT22;11819;51.394;12.340;2022-09-06T07:05:36;19.40;67.90
23301;DHT22;11819;51.394;12.340;2022-09-06T07:08:03;19.40;67.90
23301;DHT22;11819;51.394;12.340;2022-09-06T07:10:28;19.40;67.80
23301;DHT22;11819;51.394;12.340;2022-09-06T07:12:54;19.40;67.80
23301;DHT22;11819;51.394;12.340;2022-09-06T07:15:19;19.50;67.90
23301;DHT22;11819;51.394;12.340;2022-09-06T07:17:45;19.50;67.70
23301;DHT22;11819;51.394;12.340;2022-09-06T07:20:11;19.50;67.60
23301;DHT22;11819;51.394;12.340;2022-09-06T07:22:37;19.50;67.50
23301;DHT22;11819;51.394;12.340;2022-09-06T07:25:04;19.60;67.50
23301;DHT22;11819;51.394;12.340;2022-09-06T07:27:30;19.60;67.30
23301;DHT22;11819;51.394;12.340;2022-09-06T07:29:55;19.60;67.30
23301;DHT22;11819;51.394;12.340;2022-09-06T07:32:21;19.70;67.30
23301;DHT22;11819;51.394;12.340;2022-09-06T07:34:47;19.70;67.20
23301;DHT22;11819;51.394;12.340;2022-09-06T07:37:12;19.70;67.20
23301;DHT22;11819;51.394;12.340;2022-09-06T07:39:38;19.80;67.20
23301;DHT22;11819;51.394;12.340;2022-09-06T07:42:04;19.80;67.10
23301;DHT22;11819;51.394;12.340;2022-09-06T07:44:30;19.90;67.00
23301;DHT22;11819;51.394;12.340;2022-09-06T07:46:56;19.90;67.00
23301;DHT22;11819;51.394;12.340;2022-09-06T07:49:22;19.90;66.90
23301;DHT22;11819;51.394;12.340;2022-09-06T07:51:47;19.90;66.80
23301;DHT22;11819;51.394;12.340;2022-09-06T07:54:13;19.90;66.70
23301;DHT22;11819;51.394;12.340;2022-09-06T07:56:39;20.00;66.80
23301;DHT22;11819;51.394;12.340;2022-09-06T07:59:05;20.00;66.80
23301;DHT22;11819;51.394;12.340;2022-09-06T08:01:33;20.00;66.80
23301;DHT22;11819;51.394;12.340;2022-09-06T08:04:03;20.10;66.90
23301;DHT22;11819;51.394;12.340;2022-09-06T08:06:31;20.10;66.90
23301;DHT22;11819;51.394;12.340;2022-09-06T08:08:57;20.10;66.80
23301;DHT22;11819;51.394;12.340;2022-09-06T08:11:25;20.10;66.80
23301;DHT22;11819;51.394;12.340;2022-09-06T08:13:52;20.20;66.80
23301;DHT22;11819;51.394;12.340;2022-09-06T08:16:19;20.20;66.80
23301;DHT22;11819;51.394;12.340;2022-09-06T08:18:53;20.30;66.80
23301;DHT22;11819;51.394;12.340;2022-09-06T08:21:19;20.30;66.90
23301;DHT22;11819;51.394;12.340;2022-09-06T08:23:49;20.30;66.90
23301;DHT22;11819;51.394;12.340;2022-09-06T08:26:19;20.40;66.90
23301;DHT22;11819;51.394;12.340;2022-09-06T08:28:45;20.40;66.80
23301;DHT22;11819;51.394;12.340;2022-09-06T08:31:15;20.50;66.70
23301;DHT22;11819;51.394;12.340;2022-09-06T08:33:42;20.40;66.50
23301;DHT22;11819;51.394;12.340;2022-09-06T08:36:08;20.50;66.60
23301;DHT22;11819;51.394;12.340;2022-09-06T08:38:35;20.50;66.60
23301;DHT22;11819;51.394;12.340;2022-09-06T08:41:24;20.50;66.60
23301;DHT22;11819;51.394;12.340;2022-09-06T08:43:53;20.50;66.50
23301;DHT22;11819;51.394;12.340;2022-09-06T08:46:29;20.60;66.50
23301;DHT22;11819;51.394;12.340;2022-09-06T08:48:56;20.60;66.40
23301;DHT22;11819;51.394;12.340;2022-09-06T08:54:37;20.60;66.30
23301;DHT22;11819;51.394;12.340;2022-09-06T08:57:29;20.60;66.40
23301;DHT22;11819;51.394;12.340;2022-09-06T09:00:04;20.60;66.40
23301;DHT22;11819;51.394;12.340;2022-09-06T09:02:48;20.70;66.40
23301;DHT22;11819;51.394;12.340;2022-09-06T09:05:28;20.80;66.40
23301;DHT22;11819;51.394;12.340;2022-09-06T09:08:15;20.90;66.40
23301;DHT22;11819;51.394;12.340;2022-09-06T09:10:47;20.90;66.30
23301;DHT22;11819;51.394;12.340;2022-09-06T09:13:50;21.10;66.30
23301;DHT22;11819;51.394;12.340;2022-09-06T09:16:17;21.20;66.20
23301;DHT22;11819;51.394;12.340;2022-09-06T09:18:45;21.20;66.00
23301;DHT22;11819;51.394;12.340;2022-09-06T09:21:12;21.30;65.90
23301;DHT22;11819;51.394;12.340;2022-09-06T09:23:39;21.40;65.90
23301;DHT22;11819;51.394;12.340;2022-09-06T09:26:09;21.40;65.80
23301;DHT22;11819;51.394;12.340;2022-09-06T09:28:36;21.50;65.70
23301;DHT22;11819;51.394;12.340;2022-09-06T09:31:02;21.60;65.70
23301;DHT22;11819;51.394;12.340;2022-09-06T09:33:34;21.70;65.60
23301;DHT22;11819;51.394;12.340;2022-09-06T09:36:05;21.70;65.50
23301;DHT22;11819;51.394;12.340;2022-09-06T09:38:42;21.80;65.40
23301;DHT22;11819;51.394;12.340;2022-09-06T09:41:08;21.80;65.30
23301;DHT22;11819;51.394;12.340;2022-09-06T09:43:37;21.90;65.20
23301;DHT22;11819;51.394;12.340;2022-09-06T09:49:02;21.90;65.10
23301;DHT22;11819;51.394;12.340;2022-09-06T09:51:29;21.90;65.00
23301;DHT22;11819;51.394;12.340;2022-09-06T09:53:57;21.90;65.00
23301;DHT22;11819;51.394;12.340;2022-09-06T09:56:33;21.90;65.00
23301;DHT22;11819;51.394;12.340;2022-09-06T09:59:04;22.00;65.10
23301;DHT22;11819;51.394;12.340;2022-09-06T10:01:31;22.00;65.00
23301;DHT22;11819;51.394;12.340;2022-09-06T10:04:06;22.00;65.10
23301;DHT22;11819;51.394;12.340;2022-09-06T10:06:33;22.00;65.10
23301;DHT22;11819;51.394;12.340;2022-09-06T10:09:12;22.10;65.10
23301;DHT22;11819;51.394;12.340;2022-09-06T10:11:53;22.20;65.10
23301;DHT22;11819;51.394;12.340;2022-09-06T10:14:31;22.20;65.10
23301;DHT22;11819;51.394;12.340;2022-09-06T10:16:58;22.20;65.00
23301;DHT22;11819;51.394;12.340;2022-09-06T10:19:43;22.20;65.00
23301;DHT22;11819;51.394;12.340;2022-09-06T10:22:26;22.30;65.10
23301;DHT22;11819;51.394;12.340;2022-09-06T10:30:36;22.50;65.10
23301;DHT22;11819;51.394;12.340;2022-09-06T10:33:38;22.60;64.90
23301;DHT22;11819;51.394;12.340;2022-09-06T10:36:07;22.60;64.70
23301;DHT22;11819;51.394;12.340;2022-09-06T10:38:59;22.70;64.80
23301;DHT22;11819;51.394;12.340;2022-09-06T10:41:48;22.70;64.70
23301;DHT22;11819;51.394;12.340;2022-09-06T10:44:39;22.80;64.70
23301;DHT22;11819;51.394;12.340;2022-09-06T10:47:12;22.80;64.50
23301;DHT22;11819;51.394;12.340;2022-09-06T10:49:41;22.90;64.40
23301;DHT22;11819;51.394;12.340;2022-09-06T10:52:13;22.90;64.10
23301;DHT22;11819;51.394;12.340;2022-09-06T10:54:40;23.00;63.90
23301;DHT22;11819;51.394;12.340;2022-09-06T10:59:52;23.00;63.80
23301;DHT22;11819;51.394;12.340;2022-09-06T11:05:50;23.10;63.60
23301;DHT22;11819;51.394;12.340;2022-09-06T11:07:59;23.10;63.50
23301;DHT22;11819;51.394;12.340;2022-09-06T11:10:29;23.20;63.50
23301;DHT22;11819;51.394;12.340;2022-09-06T11:13:02;23.20;63.20
23301;DHT22;11819;51.394;12.340;2022-09-06T11:15:40;23.20;63.10
23301;DHT22;11819;51.394;12.340;2022-09-06T11:18:07;23.10;62.90
23301;DHT22;11819;51.394;12.340;2022-09-06T11:20:44;23.10;62.80
23301;DHT22;11819;51.394;12.340;2022-09-06T11:23:24;23.10;62.80
23301;DHT22;11819;51.394;12.340;2022-09-06T11:28:42;23.10;62.70
23301;DHT22;11819;51.394;12.340;2022-09-06T11:31:23;23.20;62.70
23301;DHT22;11819;51.394;12.340;2022-09-06T11:36:38;23.20;62.60
23301;DHT22;11819;51.394;12.340;2022-09-06T11:39:09;23.20;62.50
23301;DHT22;11819;51.394;12.340;2022-09-06T11:41:40;23.30;62.40
23301;DHT22;11819;51.394;12.340;2022-09-06T11:44:08;23.30;62.40
23301;DHT22;11819;51.394;12.340;2022-09-06T11:49:05;23.30;62.30
23301;DHT22;11819;51.394;12.340;2022-09-06T11:51:34;23.40;62.40
23301;DHT22;11819;51.394;12.340;2022-09-06T11:57:00;23.50;62.40
23301;DHT22;11819;51.394;12.340;2022-09-06T11:59:37;23.60;62.40
23301;DHT22;11819;51.394;12.340;2022-09-06T12:07:29;23.80;62.00
23301;DHT22;11819;51.394;12.340;2022-09-06T12:09:55;23.90;61.80
23301;DHT22;11819;51.394;12.340;2022-09-06T12:12:41;23.90;61.70
23301;DHT22;11819;51.394;12.340;2022-09-06T12:15:39;23.90;61.60
23301;DHT22;11819;51.394;12.340;2022-09-06T12:18:08;24.00;61.70
23301;DHT22;11819;51.394;12.340;2022-09-06T12:26:08;24.00;61.50
23301;DHT22;11819;51.394;12.340;2022-09-06T12:28:48;24.00;61.50
23301;DHT22;11819;51.394;12.340;2022-09-06T12:31:37;24.00;61.50
23301;DHT22;11819;51.394;12.340;2022-09-06T12:34:18;24.00;62.40
23301;DHT22;11819;51.394;12.340;2022-09-06T12:36:48;24.10;61.60
23301;DHT22;11819;51.394;12.340;2022-09-06T12:39:15;24.10;61.60
23301;DHT22;11819;51.394;12.340;2022-09-06T12:41:44;24.10;61.40
23301;DHT22;11819;51.394;12.340;2022-09-06T12:44:13;24.20;61.40
23301;DHT22;11819;51.394;12.340;2022-09-06T12:46:47;24.20;61.40
23301;DHT22;11819;51.394;12.340;2022-09-06T12:49:16;24.20;61.30
23301;DHT22;11819;51.394;12.340;2022-09-06T12:51:42;24.20;61.40
23301;DHT22;11819;51.394;12.340;2022-09-06T12:54:25;24.30;61.60
23301;DHT22;11819;51.394;12.340;2022-09-06T12:56:52;24.30;61.70
23301;DHT22;11819;51.394;12.340;2022-09-06T12:59:20;24.30;61.80
23301;DHT22;11819;51.394;12.340;2022-09-06T13:01:59;24.30;61.80
23301;DHT22;11819;51.394;12.340;2022-09-06T13:04:32;24.30;61.70
23301;DHT22;11819;51.394;12.340;2022-09-06T13:07:01;24.30;61.30
23301;DHT22;11819;51.394;12.340;2022-09-06T13:09:28;24.30;61.40
23301;DHT22;11819;51.394;12.340;2022-09-06T13:12:16;24.30;61.30
23301;DHT22;11819;51.394;12.340;2022-09-06T13:14:43;24.30;62.30
23301;DHT22;11819;51.394;12.340;2022-09-06T13:17:28;24.30;61.60
23301;DHT22;11819;51.394;12.340;2022-09-06T13:19:55;24.50;61.70
23301;DHT22;11819;51.394;12.340;2022-09-06T13:22:46;24.60;61.30
23301;DHT22;11819;51.394;12.340;2022-09-06T13:27:42;24.70;60.70
23301;DHT22;11819;51.394;12.340;2022-09-06T13:30:29;24.70;60.60
23301;DHT22;11819;51.394;12.340;2022-09-06T13:32:55;24.70;60.20
23301;DHT22;11819;51.394;12.340;2022-09-06T13:35:26;24.70;60.00
23301;DHT22;11819;51.394;12.340;2022-09-06T13:41:45;25.00;59.80
23301;DHT22;11819;51.394;12.340;2022-09-06T13:44:02;25.40;59.90
23301;DHT22;11819;51.394;12.340;2022-09-06T13:46:29;26.00;59.30
23301;DHT22;11819;51.394;12.340;2022-09-06T13:48:55;26.30;58.40
23301;DHT22;11819;51.394;12.340;2022-09-06T13:51:22;26.70;58.30
23301;DHT22;11819;51.394;12.340;2022-09-06T13:53:49;27.20;57.90
23301;DHT22;11819;51.394;12.340;2022-09-06T13:56:14;27.50;57.10
23301;DHT22;11819;51.394;12.340;2022-09-06T13:58:41;27.70;56.40
23301;DHT22;11819;51.394;12.340;2022-09-06T14:01:08;27.70;55.90
23301;DHT22;11819;51.394;12.340;2022-09-06T14:03:36;27.60;55.80
23301;DHT22;11819;51.394;12.340;2022-09-06T14:06:02;27.80;56.10
23301;DHT22;11819;51.394;12.340;2022-09-06T14:08:28;28.20;56.20
23301;DHT22;11819;51.394;12.340;2022-09-06T14:10:54;28.60;55.90
23301;DHT22;11819;51.394;12.340;2022-09-06T14:13:20;29.00;55.30
23301;DHT22;11819;51.394;12.340;2022-09-06T14:15:47;29.20;54.90
23301;DHT22;11819;51.394;12.340;2022-09-06T14:18:13;29.40;54.50
23301;DHT22;11819;51.394;12.340;2022-09-06T14:20:39;29.60;54.20
23301;DHT22;11819;51.394;12.340;2022-09-06T14:23:06;29.80;53.70
23301;DHT22;11819;51.394;12.340;2022-09-06T14:25:36;29.80;53.20
23301;DHT22;11819;51.394;12.340;2022-09-06T14:28:02;29.80;52.80
23301;DHT22;11819;51.394;12.340;2022-09-06T14:30:28;29.90;52.50
23301;DHT22;11819;51.394;12.340;2022-09-06T14:32:54;30.10;52.50
23301;DHT22;11819;51.394;12.340;2022-09-06T14:35:19;30.40;52.70
23301;DHT22;11819;51.394;12.340;2022-09-06T14:37:45;30.70;51.60
23301;DHT22;11819;51.394;12.340;2022-09-06T14:40:11;31.00;51.30
23301;DHT22;11819;51.394;12.340;2022-09-06T14:42:36;31.20;50.90
23301;DHT22;11819;51.394;12.340;2022-09-06T14:45:02;31.50;50.50
23301;DHT22;11819;51.394;12.340;2022-09-06T14:47:28;31.80;50.00
23301;DHT22;11819;51.394;12.340;2022-09-06T14:49:53;31.70;49.40
23301;DHT22;11819;51.394;12.340;2022-09-06T14:52:19;31.50;49.20
23301;DHT22;11819;51.394;12.340;2022-09-06T14:54:44;31.30;49.20
23301;DHT22;11819;51.394;12.340;2022-09-06T14:57:10;31.10;49.00
23301;DHT22;11819;51.394;12.340;2022-09-06T14:59:35;31.10;49.10
23301;DHT22;11819;51.394;12.340;2022-09-06T15:02:01;30.90;49.00
23301;DHT22;11819;51.394;12.340;2022-09-06T15:04:26;30.50;49.00
23301;DHT22;11819;51.394;12.340;2022-09-06T15:06:55;30.10;49.30
23301;DHT22;11819;51.394;12.340;2022-09-06T15:09:21;29.90;49.70
23301;DHT22;11819;51.394;12.340;2022-09-06T15:11:49;29.80;50.10
23301;DHT22;11819;51.394;12.340;2022-09-06T15:14:18;29.80;50.30
23301;DHT22;11819;51.394;12.340;2022-09-06T15:16:45;30.00;50.40
23301;DHT22;11819;51.394;12.340;2022-09-06T15:19:12;30.00;50.20
23301;DHT22;11819;51.394;12.340;2022-09-06T15:21:38;29.80;50.10
23301;DHT22;11819;51.394;12.340;2022-09-06T15:24:04;29.50;50.30
23301;DHT22;11819;51.394;12.340;2022-09-06T15:26:31;29.30;50.60
23301;DHT22;11819;51.394;12.340;2022-09-06T15:28:59;29.20;50.70
23301;DHT22;11819;51.394;12.340;2022-09-06T15:31:24;28.90;50.70
23301;DHT22;11819;51.394;12.340;2022-09-06T15:33:51;28.80;51.10
23301;DHT22;11819;51.394;12.340;2022-09-06T15:36:17;28.90;51.40
23301;DHT22;11819;51.394;12.340;2022-09-06T15:38:45;28.80;51.40
23301;DHT22;11819;51.394;12.340;2022-09-06T15:41:16;28.60;51.60
23301;DHT22;11819;51.394;12.340;2022-09-06T15:43:45;28.30;51.90
23301;DHT22;11819;51.394;12.340;2022-09-06T15:46:15;28.10;52.30
23301;DHT22;11819;51.394;12.340;2022-09-06T15:48:46;28.20;52.70
23301;DHT22;11819;51.394;12.340;2022-09-06T15:51:14;28.50;52.80
23301;DHT22;11819;51.394;12.340;2022-09-06T15:53:40;28.80;52.60
23301;DHT22;11819;51.394;12.340;2022-09-06T15:56:09;29.00;52.30
23301;DHT22;11819;51.394;12.340;2022-09-06T15:58:36;29.10;52.10
23301;DHT22;11819;51.394;12.340;2022-09-06T16:01:16;29.00;51.90
23301;DHT22;11819;51.394;12.340;2022-09-06T16:03:44;28.90;52.00
23301;DHT22;11819;51.394;12.340;2022-09-06T16:06:16;28.70;52.10
23301;DHT22;11819;51.394;12.340;2022-09-06T16:08:44;28.40;52.30
23301;DHT22;11819;51.394;12.340;2022-09-06T16:11:12;28.10;52.50
23301;DHT22;11819;51.394;12.340;2022-09-06T16:13:39;27.90;52.80
23301;DHT22;11819;51.394;12.340;2022-09-06T16:16:07;27.70;53.10
23301;DHT22;11819;51.394;12.340;2022-09-06T16:18:35;27.50;53.40
23301;DHT22;11819;51.394;12.340;2022-09-06T16:21:06;27.40;53.80
23301;DHT22;11819;51.394;12.340;2022-09-06T16:23:33;27.10;54.10
23301;DHT22;11819;51.394;12.340;2022-09-06T16:26:00;26.90;54.50
23301;DHT22;11819;51.394;12.340;2022-09-06T16:28:29;26.70;54.90
23301;DHT22;11819;51.394;12.340;2022-09-06T16:31:00;26.50;55.30
23301;DHT22;11819;51.394;12.340;2022-09-06T16:33:26;26.40;55.70
23301;DHT22;11819;51.394;12.340;2022-09-06T16:35:52;26.20;56.00